createdAt,value
2017-06-05T00:00:16.189Z,17.20
2017-06-05T00:02:44.620Z,17.20
2017-06-05T00:05:13.156Z,17.20
2017-06-05T00:07:41.605Z,17.10
2017-06-05T00:10:10.788Z,17.10
2017-06-05T00:12:39.196Z,17.10
2017-06-05T00:15:08.405Z,17.20
2017-06-05T00:17:36.841Z,17.20
2017-06-05T00:20:05.252Z,17.30
2017-06-05T00:22:34.463Z,17.30
2017-06-05T00:25:02.892Z,17.30
2017-06-05T00:27:31.290Z,17.30
2017-06-05T00:30:00.489Z,17.30
2017-06-05T00:32:29.747Z,17.20
2017-06-05T00:34:58.166Z,17.10
2017-06-05T00:37:27.365Z,17.10
2017-06-05T00:39:56.549Z,17.10
2017-06-05T00:42:25.058Z,17.00
2017-06-05T00:44:53.524Z,17.10
2017-06-05T00:47:22.708Z,17.10
2017-06-05T00:49:51.127Z,17.00
2017-06-05T00:52:19.581Z,17.00
2017-06-05T00:54:48.757Z,17.00
2017-06-05T00:57:17.202Z,17.00
2017-06-05T00:59:45.636Z,17.00
2017-06-05T01:02:14.833Z,16.90
2017-06-05T01:04:44.013Z,16.90
2017-06-05T01:07:12.539Z,16.90
2017-06-05T01:09:40.955Z,16.80
2017-06-05T01:12:09.378Z,16.80
2017-06-05T01:14:37.849Z,16.80
2017-06-05T01:17:07.044Z,16.70
2017-06-05T01:19:36.246Z,16.60
2017-06-05T01:22:05.481Z,16.50
2017-06-05T01:24:33.897Z,16.50
2017-06-05T01:27:02.320Z,16.60
2017-06-05T01:29:30.750Z,16.60
2017-06-05T01:31:58.836Z,16.50
2017-06-05T01:34:28.069Z,16.50
2017-06-05T01:36:56.509Z,16.50
2017-06-05T01:39:24.922Z,16.50
2017-06-05T01:41:53.025Z,16.50
2017-06-05T01:44:21.498Z,16.50
2017-06-05T01:46:49.903Z,16.30
2017-06-05T01:49:18.018Z,16.30
2017-06-05T01:51:47.161Z,16.20
2017-06-05T01:54:15.597Z,16.10
2017-06-05T01:56:44.014Z,15.90
2017-06-05T01:59:12.470Z,15.80
2017-06-05T02:01:40.895Z,15.90
2017-06-05T02:04:09.367Z,16.00
2017-06-05T02:06:38.637Z,16.00
2017-06-05T02:09:07.062Z,16.00
2017-06-05T02:11:35.477Z,15.90
2017-06-05T02:14:03.925Z,15.80
2017-06-05T02:16:33.125Z,15.90
2017-06-05T02:19:02.298Z,15.90
2017-06-05T02:21:30.764Z,15.90
2017-06-05T02:23:59.197Z,15.90
2017-06-05T02:26:27.610Z,15.70
2017-06-05T02:28:56.058Z,15.70
2017-06-05T02:31:25.379Z,15.70
2017-06-05T02:33:53.794Z,15.70
2017-06-05T02:36:22.236Z,15.80
2017-06-05T02:38:50.695Z,15.80
2017-06-05T02:41:19.132Z,15.80
2017-06-05T02:43:47.578Z,15.70
2017-06-05T02:46:16.069Z,15.70
2017-06-05T02:48:44.469Z,15.70
2017-06-05T02:51:12.900Z,15.60
2017-06-05T02:53:41.317Z,15.50
2017-06-05T02:56:09.732Z,15.50
2017-06-05T02:58:38.932Z,15.40
2017-06-05T03:01:08.037Z,15.40
2017-06-05T03:03:36.455Z,15.40
2017-06-05T03:06:05.000Z,15.30
2017-06-05T03:08:33.488Z,15.30
2017-06-05T03:11:01.896Z,15.30
2017-06-05T03:13:30.355Z,15.30
2017-06-05T03:15:58.816Z,15.20
2017-06-05T03:18:27.309Z,15.20
2017-06-05T03:20:57.223Z,15.20
2017-06-05T03:23:25.642Z,15.20
2017-06-05T03:25:54.049Z,15.20
2017-06-05T03:28:22.909Z,15.30
2017-06-05T03:30:51.337Z,15.30
2017-06-05T03:33:19.752Z,15.30
2017-06-05T03:35:48.200Z,15.40
2017-06-05T03:38:16.614Z,15.30
2017-06-05T03:40:45.035Z,15.40
2017-06-05T03:43:14.246Z,15.30
2017-06-05T03:45:42.646Z,15.30
2017-06-05T03:48:11.064Z,15.20
2017-06-05T03:50:39.500Z,15.20
2017-06-05T03:53:07.930Z,15.30
2017-06-05T03:55:36.444Z,15.20
2017-06-05T03:58:04.875Z,15.20
2017-06-05T04:00:33.279Z,15.10
2017-06-05T04:03:02.461Z,15.10
2017-06-05T04:05:30.910Z,15.10
2017-06-05T04:07:59.452Z,15.20
2017-06-05T04:10:28.636Z,15.20
2017-06-05T04:12:57.835Z,15.20
2017-06-05T04:15:27.015Z,15.30
2017-06-05T04:17:55.463Z,15.30
2017-06-05T04:20:23.877Z,15.30
2017-06-05T04:22:52.282Z,15.30
2017-06-05T04:25:20.697Z,15.30
2017-06-05T04:27:49.130Z,15.20
2017-06-05T04:30:18.337Z,15.20
2017-06-05T04:32:46.750Z,15.20
2017-06-05T04:35:15.190Z,15.30
2017-06-05T04:37:44.377Z,15.40
2017-06-05T04:40:13.567Z,15.30
2017-06-05T04:42:42.005Z,15.30
2017-06-05T04:45:11.126Z,15.40
2017-06-05T04:47:39.551Z,15.40
2017-06-05T04:50:08.000Z,15.50
2017-06-05T04:52:37.217Z,15.50
2017-06-05T04:55:05.642Z,15.50
2017-06-05T04:57:34.084Z,15.50
2017-06-05T05:00:02.505Z,15.60
2017-06-05T05:02:30.924Z,15.60
2017-06-05T05:05:00.125Z,15.60
2017-06-05T05:07:29.329Z,15.60
2017-06-05T05:09:57.736Z,15.60
2017-06-05T05:12:26.188Z,15.60
2017-06-05T05:14:54.608Z,15.60
2017-06-05T05:17:23.045Z,15.60
2017-06-05T05:19:51.477Z,15.70
2017-06-05T05:22:19.885Z,15.70
2017-06-05T05:24:49.063Z,15.80
2017-06-05T05:27:17.504Z,15.80
2017-06-05T05:29:45.912Z,15.90
2017-06-05T05:32:16.579Z,15.90
2017-06-05T05:34:45.684Z,15.90
2017-06-05T05:37:14.097Z,16.00
2017-06-05T05:39:42.527Z,16.00
2017-06-05T05:42:11.541Z,16.10
2017-06-05T05:44:40.721Z,16.10
2017-06-05T05:47:09.901Z,16.10
2017-06-05T05:49:39.126Z,16.20
2017-06-05T05:52:07.548Z,16.10
2017-06-05T05:54:35.947Z,16.10
2017-06-05T05:57:04.399Z,16.10
2017-06-05T05:59:32.839Z,16.10
2017-06-05T06:02:01.261Z,16.10
2017-06-05T06:04:29.700Z,16.30
2017-06-05T06:06:58.113Z,16.40
2017-06-05T06:09:26.544Z,16.50
2017-06-05T06:11:55.748Z,16.50
2017-06-05T06:14:24.168Z,16.50
2017-06-05T06:16:52.571Z,16.60
2017-06-05T06:19:20.999Z,16.70
2017-06-05T06:21:49.425Z,16.70
2017-06-05T06:24:17.853Z,16.80
2017-06-05T06:26:46.300Z,16.90
2017-06-05T06:29:15.520Z,17.10
2017-06-05T06:31:43.937Z,17.10
2017-06-05T06:34:13.099Z,17.20
2017-06-05T06:36:41.503Z,17.30
2017-06-05T06:39:09.989Z,17.30
2017-06-05T06:41:38.537Z,17.40
2017-06-05T06:44:07.017Z,17.40
2017-06-05T06:46:35.432Z,17.50
2017-06-05T06:49:03.870Z,17.50
2017-06-05T06:51:32.289Z,17.60
2017-06-05T06:54:01.010Z,17.60
2017-06-05T06:56:29.470Z,17.60
2017-06-05T06:58:57.901Z,17.70
2017-06-05T07:01:26.560Z,17.70
2017-06-05T07:03:55.836Z,17.80
2017-06-05T07:06:23.914Z,17.80
2017-06-05T07:08:52.646Z,17.90
2017-06-05T07:11:21.086Z,17.90
2017-06-05T07:13:49.927Z,18.00
2017-06-05T07:16:18.521Z,18.00
2017-06-05T07:18:46.969Z,18.10
2017-06-05T07:21:16.832Z,18.10
2017-06-05T07:23:45.259Z,18.10
2017-06-05T07:26:13.692Z,18.20
2017-06-05T07:28:42.304Z,18.20
2017-06-05T07:31:11.550Z,18.30
2017-06-05T07:33:40.142Z,18.30
2017-06-05T07:36:08.911Z,18.30
2017-06-05T07:38:37.332Z,18.30
2017-06-05T07:41:06.004Z,18.30
2017-06-05T07:43:34.442Z,18.30
2017-06-05T07:46:02.940Z,18.40
2017-06-05T07:48:31.441Z,18.50
2017-06-05T07:51:00.068Z,18.50
2017-06-05T07:53:28.488Z,18.60
2017-06-05T07:55:56.935Z,18.70
2017-06-05T07:58:25.357Z,18.80
2017-06-05T08:00:53.772Z,18.90
2017-06-05T08:03:22.785Z,19.00
2017-06-05T08:05:51.209Z,19.00
2017-06-05T08:08:19.631Z,19.10
2017-06-05T08:10:48.117Z,19.20
2017-06-05T08:13:16.533Z,19.20
2017-06-05T08:15:47.158Z,19.20
2017-06-05T08:18:15.620Z,19.20
2017-06-05T08:20:44.034Z,19.20
2017-06-05T08:23:12.444Z,19.30
2017-06-05T08:25:41.654Z,19.30
2017-06-05T08:28:10.091Z,19.40
2017-06-05T08:30:38.503Z,19.40
2017-06-05T08:33:07.763Z,19.50
2017-06-05T08:35:46.414Z,19.50
2017-06-05T08:38:14.976Z,19.60
2017-06-05T08:40:46.676Z,19.60
2017-06-05T08:43:15.144Z,19.60
2017-06-05T08:45:45.144Z,19.80
2017-06-05T08:48:14.336Z,19.80
2017-06-05T08:50:43.562Z,19.70
2017-06-05T08:53:12.749Z,19.70
2017-06-05T08:55:41.953Z,19.90
2017-06-05T08:58:10.543Z,19.80
2017-06-05T09:00:39.111Z,20.00
2017-06-05T09:03:07.563Z,20.10
2017-06-05T09:05:35.998Z,20.30
2017-06-05T09:08:04.493Z,20.40
2017-06-05T09:10:32.929Z,20.50
2017-06-05T09:13:01.349Z,20.50
2017-06-05T09:15:29.793Z,20.60
2017-06-05T09:18:00.842Z,20.60
2017-06-05T09:20:29.065Z,20.60
2017-06-05T09:22:57.312Z,20.60
2017-06-05T09:25:25.768Z,20.60
2017-06-05T09:27:54.010Z,20.70
2017-06-05T09:30:22.442Z,20.60
2017-06-05T09:32:50.889Z,20.70
2017-06-05T09:35:19.312Z,20.80
2017-06-05T09:37:47.737Z,20.90
2017-06-05T09:40:16.961Z,21.00
2017-06-05T09:42:45.388Z,21.00
2017-06-05T09:45:13.980Z,21.10
2017-06-05T09:47:43.182Z,21.30
2017-06-05T09:50:11.597Z,21.30
2017-06-05T09:52:40.125Z,21.40
2017-06-05T09:55:08.531Z,21.40
2017-06-05T09:57:37.709Z,21.70
2017-06-05T10:00:06.133Z,21.70
2017-06-05T10:02:36.020Z,21.90
2017-06-05T10:05:05.216Z,21.70
2017-06-05T10:07:34.384Z,21.90
2017-06-05T10:10:02.828Z,21.90
2017-06-05T10:12:31.601Z,22.00
2017-06-05T10:15:00.041Z,21.90
2017-06-05T10:17:29.813Z,22.10
2017-06-05T10:19:58.252Z,22.10
2017-06-05T10:22:26.737Z,22.10
2017-06-05T10:24:55.176Z,22.20
2017-06-05T10:27:23.591Z,22.30
2017-06-05T10:29:52.007Z,22.30
2017-06-05T10:32:20.453Z,22.40
2017-06-05T10:34:49.449Z,22.40
2017-06-05T10:37:17.888Z,22.20
2017-06-05T10:39:46.317Z,22.40
2017-06-05T10:42:14.730Z,22.60
2017-06-05T10:44:43.146Z,22.80
2017-06-05T10:47:12.342Z,23.00
2017-06-05T10:49:41.530Z,23.00
2017-06-05T10:52:10.726Z,22.90
2017-06-05T10:54:39.157Z,22.80
2017-06-05T10:57:07.577Z,22.70
2017-06-05T10:59:36.113Z,22.70
2017-06-05T11:02:04.542Z,22.60
2017-06-05T11:04:32.968Z,22.70
2017-06-05T11:07:01.374Z,22.90
2017-06-05T11:09:29.798Z,22.90
2017-06-05T11:11:58.983Z,22.80
2017-06-05T11:14:28.161Z,23.00
2017-06-05T11:16:56.596Z,22.90
2017-06-05T11:19:25.060Z,22.90
2017-06-05T11:21:53.491Z,22.90
2017-06-05T11:24:21.914Z,23.10
2017-06-05T11:26:50.353Z,23.10
2017-06-05T11:29:18.764Z,23.10
2017-06-05T11:31:47.453Z,23.20
2017-06-05T11:34:15.890Z,23.40
2017-06-05T11:36:44.300Z,23.40
2017-06-05T11:39:13.516Z,23.60
2017-06-05T11:41:42.002Z,23.50
2017-06-05T11:44:10.419Z,23.60
2017-06-05T11:46:38.856Z,23.70
2017-06-05T11:49:07.331Z,23.70
2017-06-05T11:51:35.745Z,23.80
2017-06-05T11:54:04.175Z,24.10
2017-06-05T11:56:33.365Z,23.80
2017-06-05T11:59:02.558Z,23.50
2017-06-05T12:01:31.794Z,23.50
2017-06-05T12:04:00.241Z,23.50
2017-06-05T12:06:29.453Z,23.70
2017-06-05T12:08:57.889Z,23.70
2017-06-05T12:11:26.296Z,23.90
2017-06-05T12:13:55.484Z,23.70
2017-06-05T12:16:24.692Z,23.70
2017-06-05T12:18:53.877Z,23.40
2017-06-05T12:21:22.391Z,23.50
2017-06-05T12:23:50.867Z,23.40
2017-06-05T12:26:19.287Z,23.30
2017-06-05T12:28:47.684Z,23.50
2017-06-05T12:31:16.193Z,23.80
2017-06-05T12:33:44.619Z,23.80
2017-06-05T12:36:13.028Z,23.70
2017-06-05T12:38:41.466Z,24.00
2017-06-05T12:41:09.877Z,24.10
2017-06-05T12:43:38.397Z,24.10
2017-06-05T12:46:06.873Z,24.10
2017-06-05T12:48:35.293Z,24.00
2017-06-05T12:51:03.726Z,23.70
2017-06-05T12:53:33.020Z,23.50
2017-06-05T12:56:02.216Z,23.70
2017-06-05T12:58:31.388Z,23.80
2017-06-05T13:00:59.831Z,23.80
2017-06-05T13:03:28.243Z,23.70
2017-06-05T13:05:56.657Z,23.80
2017-06-05T13:08:25.125Z,23.80
2017-06-05T13:10:54.320Z,23.90
2017-06-05T13:13:23.500Z,24.20
2017-06-05T13:15:51.940Z,24.20
2017-06-05T13:18:20.364Z,24.30
2017-06-05T13:20:48.798Z,24.40
2017-06-05T13:23:17.233Z,24.60
2017-06-05T13:25:46.065Z,25.00
2017-06-05T13:28:14.492Z,25.00
2017-06-05T13:30:42.914Z,25.10
2017-06-05T13:33:11.368Z,24.90
2017-06-05T13:35:40.470Z,24.70
2017-06-05T13:38:08.945Z,24.50
2017-06-05T13:40:37.359Z,24.40
2017-06-05T13:43:05.773Z,24.30
2017-06-05T13:45:34.285Z,24.20
2017-06-05T13:48:02.710Z,24.30
2017-06-05T13:50:31.115Z,24.40
2017-06-05T13:52:59.548Z,24.60
2017-06-05T13:55:27.959Z,24.60
2017-06-05T13:57:56.369Z,24.70
2017-06-05T14:00:25.577Z,24.80
2017-06-05T14:02:53.985Z,24.80
2017-06-05T14:05:22.421Z,24.90
2017-06-05T14:07:51.656Z,24.80
2017-06-05T14:10:20.064Z,24.70
2017-06-05T14:12:48.500Z,24.60
2017-06-05T14:15:16.961Z,24.70
2017-06-05T14:17:46.137Z,24.80
2017-06-05T14:20:14.577Z,24.80
2017-06-05T14:22:43.046Z,24.80
2017-06-05T14:25:11.496Z,24.80
2017-06-05T14:27:39.912Z,24.70
2017-06-05T14:30:08.381Z,24.70
2017-06-05T14:32:36.808Z,24.70
2017-06-05T14:35:05.343Z,24.60
2017-06-05T14:37:33.783Z,24.60
2017-06-05T14:40:02.965Z,24.70
2017-06-05T14:42:31.507Z,24.70
2017-06-05T14:44:59.948Z,24.60
2017-06-05T14:47:29.132Z,24.70
2017-06-05T14:49:57.560Z,24.60
2017-06-05T14:52:25.997Z,24.80
2017-06-05T14:54:55.181Z,25.00
2017-06-05T14:57:23.595Z,25.00
2017-06-05T14:59:52.021Z,25.10
2017-06-05T15:02:20.473Z,25.20
2017-06-05T15:04:48.896Z,25.20
2017-06-05T15:07:17.332Z,25.20
2017-06-05T15:09:45.750Z,25.10
2017-06-05T15:12:14.171Z,25.10
2017-06-05T15:14:42.597Z,25.20
2017-06-05T15:17:11.022Z,25.20
2017-06-05T15:19:39.449Z,25.10
2017-06-05T15:22:07.984Z,25.10
2017-06-05T15:24:36.459Z,25.20
2017-06-05T15:27:04.932Z,25.10
2017-06-05T15:29:33.383Z,25.10
2017-06-05T15:32:01.799Z,25.00
2017-06-05T15:34:30.246Z,25.00
2017-06-05T15:36:58.756Z,24.90
2017-06-05T15:39:27.168Z,24.80
2017-06-05T15:41:55.643Z,24.70
2017-06-05T15:44:24.107Z,24.50
2017-06-05T15:46:52.592Z,24.30
2017-06-05T15:49:21.006Z,24.20
2017-06-05T15:51:49.563Z,24.00
2017-06-05T15:54:18.000Z,24.00
2017-06-05T15:56:47.216Z,24.00
2017-06-05T15:59:15.660Z,24.10
2017-06-05T16:01:44.069Z,24.10
2017-06-05T16:04:12.657Z,24.30
2017-06-05T16:06:41.849Z,24.50
2017-06-05T16:09:10.077Z,24.50
2017-06-05T16:11:38.497Z,24.60
2017-06-05T16:14:07.705Z,24.70
2017-06-05T16:16:36.141Z,24.70
2017-06-05T16:19:04.564Z,24.80
2017-06-05T16:21:33.002Z,24.90
2017-06-05T16:24:01.529Z,24.90
2017-06-05T16:26:29.954Z,24.90
2017-06-05T16:28:58.388Z,24.70
2017-06-05T16:31:26.788Z,24.60
2017-06-05T16:33:55.218Z,24.70
2017-06-05T16:36:24.407Z,24.70
2017-06-05T16:38:53.609Z,24.70
2017-06-05T16:41:22.784Z,24.70
2017-06-05T16:43:51.313Z,24.70
2017-06-05T16:46:21.350Z,24.70
2017-06-05T16:48:49.764Z,24.60
2017-06-05T16:51:18.309Z,24.70
2017-06-05T16:53:46.721Z,24.70
2017-06-05T16:56:15.130Z,24.70
2017-06-05T16:58:44.323Z,24.70
2017-06-05T17:01:13.523Z,24.70
2017-06-05T17:03:42.716Z,24.70
2017-06-05T17:06:11.933Z,24.60
2017-06-05T17:08:40.348Z,24.60
2017-06-05T17:11:08.769Z,24.60
2017-06-05T17:13:37.980Z,24.30
2017-06-05T17:16:06.392Z,24.20
2017-06-05T17:18:34.822Z,24.20
2017-06-05T17:21:04.026Z,24.40
2017-06-05T17:23:33.224Z,24.40
2017-06-05T17:26:02.066Z,24.40
2017-06-05T17:28:30.523Z,24.40
2017-06-05T17:30:58.929Z,24.40
2017-06-05T17:33:27.340Z,24.50
2017-06-05T17:35:56.544Z,24.40
2017-06-05T17:38:25.740Z,24.40
2017-06-05T17:40:54.924Z,24.30
2017-06-05T17:43:23.359Z,24.40
2017-06-05T17:45:51.765Z,24.30
2017-06-05T17:48:20.181Z,24.10
2017-06-05T17:50:48.621Z,24.00
2017-06-05T17:53:17.044Z,24.00
2017-06-05T17:55:45.476Z,24.10
2017-06-05T17:58:13.916Z,24.20
2017-06-05T18:00:42.333Z,24.10
2017-06-05T18:03:10.755Z,24.10
2017-06-05T18:05:39.244Z,24.10
2017-06-05T18:08:07.745Z,24.10
2017-06-05T18:10:36.140Z,24.10
2017-06-05T18:13:04.590Z,24.10
2017-06-05T18:15:33.012Z,24.10
2017-06-05T18:18:01.452Z,23.90
2017-06-05T18:20:29.902Z,23.60
2017-06-05T18:22:59.159Z,23.50
2017-06-05T18:25:27.565Z,23.50
2017-06-05T18:27:56.080Z,23.50
2017-06-05T18:30:24.502Z,23.60
2017-06-05T18:32:52.937Z,23.60
2017-06-05T18:35:21.469Z,23.50
2017-06-05T18:37:49.888Z,23.40
2017-06-05T18:40:19.083Z,23.40
2017-06-05T18:42:48.321Z,23.40
2017-06-05T18:45:16.748Z,23.40
2017-06-05T18:47:45.972Z,23.30
2017-06-05T18:50:14.432Z,23.30
2017-06-05T18:52:43.640Z,23.10
2017-06-05T18:55:12.064Z,23.10
2017-06-05T18:57:40.529Z,23.00
2017-06-05T19:00:08.961Z,22.90
2017-06-05T19:02:38.161Z,22.70
2017-06-05T19:05:07.484Z,22.60
2017-06-05T19:07:35.942Z,22.60
2017-06-05T19:10:05.181Z,22.40
2017-06-05T19:12:33.649Z,22.30
2017-06-05T19:15:02.077Z,22.30
2017-06-05T19:17:30.494Z,22.20
2017-06-05T19:19:58.937Z,22.10
2017-06-05T19:22:27.347Z,22.10
2017-06-05T19:24:55.763Z,22.00
2017-06-05T19:27:24.218Z,21.90
2017-06-05T19:29:52.664Z,21.90
2017-06-05T19:32:21.860Z,22.00
2017-06-05T19:34:50.366Z,22.00
2017-06-05T19:37:18.783Z,21.90
2017-06-05T19:39:47.229Z,21.80
2017-06-05T19:42:15.666Z,21.80
2017-06-05T19:44:44.176Z,21.70
2017-06-05T19:47:13.372Z,21.60
2017-06-05T19:49:41.828Z,21.60
2017-06-05T19:52:10.268Z,21.50
2017-06-05T19:54:39.529Z,21.50
2017-06-05T19:57:08.776Z,21.40
2017-06-05T19:59:37.785Z,21.40
2017-06-05T20:02:07.171Z,21.40
2017-06-05T20:04:36.581Z,21.40
2017-06-05T20:07:04.997Z,21.40
2017-06-05T20:09:33.868Z,21.50
2017-06-05T20:12:02.336Z,21.50
2017-06-05T20:14:30.786Z,21.50
2017-06-05T20:16:59.218Z,21.40
2017-06-05T20:19:28.517Z,21.40
2017-06-05T20:21:57.802Z,21.40
2017-06-05T20:24:26.221Z,21.40
2017-06-05T20:26:54.694Z,21.40
2017-06-05T20:29:23.146Z,21.40
2017-06-05T20:31:51.548Z,21.40
2017-06-05T20:34:19.982Z,21.40
2017-06-05T20:36:48.413Z,21.40
2017-06-05T20:39:16.887Z,21.30
2017-06-05T20:41:45.348Z,21.30
2017-06-05T20:44:14.537Z,21.20
2017-06-05T20:46:42.969Z,21.20
2017-06-05T20:49:11.435Z,21.20
2017-06-05T20:51:39.866Z,21.10
2017-06-05T20:54:08.291Z,21.10
2017-06-05T20:56:36.762Z,21.00
2017-06-05T20:59:05.185Z,21.00
2017-06-05T21:01:33.597Z,20.90
2017-06-05T21:04:02.807Z,20.70
2017-06-05T21:06:32.002Z,20.60
2017-06-05T21:09:01.208Z,20.60
2017-06-05T21:11:29.811Z,20.60
2017-06-05T21:13:58.267Z,20.40
2017-06-05T21:16:28.298Z,20.30
2017-06-05T21:18:56.847Z,20.40
2017-06-05T21:21:25.395Z,20.30
2017-06-05T21:23:53.821Z,20.20
2017-06-05T21:26:23.029Z,20.20
2017-06-05T21:28:51.477Z,20.10
2017-06-05T21:31:20.591Z,20.20
2017-06-05T21:33:49.841Z,20.30
2017-06-05T21:36:18.269Z,20.20
2017-06-05T21:38:47.461Z,20.10
2017-06-05T21:41:16.673Z,20.00
2017-06-05T21:43:45.105Z,20.00
2017-06-05T21:46:13.512Z,19.90
2017-06-05T21:48:42.718Z,19.70
2017-06-05T21:51:11.116Z,19.70
2017-06-05T21:53:39.536Z,19.60
2017-06-05T21:56:08.805Z,19.70
2017-06-05T21:58:37.245Z,20.00
2017-06-05T22:01:05.664Z,19.90
2017-06-05T22:03:34.104Z,20.00
2017-06-05T22:06:03.300Z,19.90
2017-06-05T22:08:32.504Z,19.80
2017-06-05T22:11:01.772Z,19.70
2017-06-05T22:13:30.251Z,19.60
2017-06-05T22:15:58.681Z,19.70
2017-06-05T22:18:27.359Z,19.60
2017-06-05T22:20:55.805Z,19.60
2017-06-05T22:23:24.268Z,19.60
2017-06-05T22:25:52.718Z,19.60
2017-06-05T22:28:21.185Z,19.50
2017-06-05T22:30:49.792Z,19.50
2017-06-05T22:33:18.244Z,19.50
2017-06-05T22:35:46.659Z,19.50
2017-06-05T22:38:15.069Z,19.40
2017-06-05T22:40:44.283Z,19.40
2017-06-05T22:43:13.464Z,19.50
2017-06-05T22:45:42.680Z,19.50
2017-06-05T22:48:11.124Z,19.50
2017-06-05T22:50:39.552Z,19.50
2017-06-05T22:53:08.005Z,19.40
2017-06-05T22:55:37.210Z,19.30
2017-06-05T22:58:06.435Z,19.30
2017-06-05T23:00:34.868Z,19.30
2017-06-05T23:03:03.284Z,19.30
2017-06-05T23:05:31.752Z,19.20
2017-06-05T23:08:00.169Z,19.20
2017-06-05T23:10:28.708Z,19.20
2017-06-05T23:12:57.883Z,19.20
2017-06-05T23:15:26.310Z,19.20
2017-06-05T23:17:54.745Z,19.10
2017-06-05T23:20:23.921Z,19.20
2017-06-05T23:22:52.344Z,19.10
2017-06-05T23:25:20.821Z,19.20
2017-06-05T23:27:50.866Z,19.30
2017-06-05T23:30:19.273Z,19.30
2017-06-05T23:32:47.825Z,19.30
2017-06-05T23:35:16.303Z,19.20
2017-06-05T23:37:44.732Z,19.10
2017-06-05T23:40:13.241Z,19.00
2017-06-05T23:42:41.724Z,18.90
2017-06-05T23:45:10.160Z,18.90
2017-06-05T23:47:38.612Z,18.80
2017-06-05T23:50:07.021Z,18.70
2017-06-05T23:52:35.449Z,18.60
2017-06-05T23:55:03.913Z,18.60
2017-06-05T23:57:33.105Z,18.50
